Uraga Maru — JD2163 — position and weather

sailwx.info

Track history (hours):
 
Tides and Currents Weather Stations Pressure Air Temp Water Temp Dewpoint Dewpoint Depression Visibility Wind Speed Wind Dir Waves Ship Positions

Uraga Maru

Last reported at 2017-Apr-30 01:30 UTC. Time now 2017-Apr-30 01:35 UTC.
Position N 35°17' E 139°41'.

Length 40 m; draft 2.8 m.

Type: Tug. MMSI: 431101119.

Date/timePositionNaut miles runAvg speedWind from/ knotsBaromVisibWave heightAir tempDewpointWater temp
2017-Apr-30 01:30N 35°17' E 139°41'0 0.0
2017-Apr-30 01:00N 35°17' E 139°41'0 0.0
2017-Apr-30 00:30N 35°17' E 139°41'0 0.0
2017-Apr-30 00:00N 35°17' E 139°41'0 0.0
2017-Apr-29 23:30N 35°17' E 139°41'3 5.4
2017-Apr-29 23:00N 35°17' E 139°44'4 8.2
2017-Apr-29 22:28N 35°13' E 139°47'612.5
2017-Apr-29 22:00N 35°18' E 139°44'612.0
2017-Apr-29 21:30N 35°24' E 139°43'4 8.7
2017-Apr-29 21:00N 35°28' E 139°45'0 0.4
2017-Apr-29 20:30N 35°28' E 139°45'0 0.4
2017-Apr-29 20:01N 35°28' E 139°45'4 7.0
2017-Apr-29 19:30N 35°25' E 139°43'611.3
2017-Apr-29 19:00N 35°19' E 139°42'6 7.4
2017-Apr-29 18:13N 35°14' E 139°46'311.8
2017-Apr-29 17:57N 35°17' E 139°45'511.9
2017-Apr-29 17:30N 35°22' E 139°42'5 9.1
2017-Apr-29 17:00N 35°26' E 139°42'4 8.3
2017-Apr-29 16:30N 35°22' E 139°42'510.0
2017-Apr-29 15:59N 35°17' E 139°41'0 0.0
2017-Apr-29 12:12N 35°17' E 139°41'0 0.1
2017-Apr-29 11:09N 35°17' E 139°41'211.4
2017-Apr-29 11:00N 35°18' E 139°43'4 6.9
2017-Apr-29 10:23N 35°13' E 139°43'3 5.8
2017-Apr-29 09:56N 35°13' E 139°46'512.1
2017-Apr-29 09:30N 35°18' E 139°44'611.5
2017-Apr-29 09:00N 35°24' E 139°43'5 8.8
2017-Apr-29 08:29N 35°24' E 139°48'2 4.1
2017-Apr-29 07:59N 35°23' E 139°51'4 8.7
2017-Apr-29 07:30N 35°22' E 139°46'612.4
2017-Apr-29 07:01N 35°17' E 139°41'0 0.3
2017-Apr-29 06:30N 35°17' E 139°41'0 0.0
2017-Apr-29 05:59N 35°17' E 139°41'0 0.0
2017-Apr-29 05:28N 35°17' E 139°41'0 0.0
2017-Apr-29 04:56N 35°17' E 139°41'0 0.0
2017-Apr-29 04:30N 35°17' E 139°41'4 8.3
2017-Apr-29 04:00N 35°16' E 139°45'2 4.1
2017-Apr-29 03:31N 35°14' E 139°46'611.8
2017-Apr-29 03:01N 35°19' E 139°43'510.4
2017-Apr-29 02:31N 35°24' E 139°40'1 1.9
2017-Apr-29 02:00N 35°24' E 139°39'0 0.1
2017-Apr-29 01:31N 35°24' E 139°39'510.2
2017-Apr-29 01:00N 35°19' E 139°41'2 5.0
2017-Apr-29 00:30N 35°17' E 139°41'0 0.0
2017-Apr-29 00:01N 35°17' E 139°41'0 0.0
2017-Apr-28 23:30N 35°17' E 139°41'0 0.0
2017-Apr-28 23:00N 35°17' E 139°41'0 0.0
2017-Apr-28 22:30N 35°17' E 139°41'0 0.0
2017-Apr-28 21:37N 35°17' E 139°41'0 0.0
2017-Apr-28 21:27N 35°17' E 139°41'0 0.0
2017-Apr-28 20:58N 35°17' E 139°41'0 0.0
2017-Apr-28 20:29N 35°17' E 139°41'0 0.0
2017-Apr-28 19:58N 35°17' E 139°41'0 0.0
2017-Apr-28 16:21N 35°17' E 139°41'0 0.0
2017-Apr-28 15:57N 35°17' E 139°41'0 0.0
2017-Apr-28 15:29N 35°17' E 139°41'0 0.0
2017-Apr-28 15:00N 35°17' E 139°41'0 0.0
2017-Apr-28 14:30N 35°17' E 139°41'0 0.0
2017-Apr-28 08:24N 35°17' E 139°41'0 0.0
2017-Apr-28 07:44N 35°17' E 139°41'0 0.0
2017-Apr-28 07:05N 35°17' E 139°41'0 0.1
2017-Apr-28 07:00N 35°17' E 139°41'0 0.0
2017-Apr-28 06:28N 35°17' E 139°41'0 0.0
2017-Apr-28 05:43N 35°17' E 139°41'0 0.0
2017-Apr-28 05:31N 35°17' E 139°41'0 0.0
2017-Apr-28 05:01N 35°17' E 139°41'0 0.0
2017-Apr-28 04:31N 35°17' E 139°41'0 0.0
2017-Apr-28 04:00N 35°17' E 139°41'0 0.0
2017-Apr-28 03:31N 35°17' E 139°41'0 0.0
2017-Apr-28 03:00N 35°17' E 139°41'0 0.0
2017-Apr-28 02:31N 35°17' E 139°41'0 0.0
2017-Apr-28 02:00N 35°17' E 139°41'0 0.0
2017-Apr-28 01:30N 35°17' E 139°41'0 0.0
2017-Apr-28 01:01N 35°17' E 139°41'0 0.0
2017-Apr-28 00:30N 35°17' E 139°41'0 0.0
2017-Apr-28 00:01N 35°17' E 139°41'0 0.0
2017-Apr-27 23:31N 35°17' E 139°41'0 0.1
2017-Apr-27 22:57N 35°17' E 139°41'1 2.1
2017-Apr-27 22:30N 35°18' E 139°41'510.6
2017-Apr-27 22:00N 35°23' E 139°44'1 2.5
2017-Apr-27 21:31N 35°22' E 139°45'510.3
2017-Apr-27 21:00N 35°17' E 139°46'4 2.8
2017-Apr-27 19:35N 35°13' E 139°43'0 0.0
2017-Apr-27 16:19N 35°13' E 139°43'0 0.6
2017-Apr-27 15:58N 35°13' E 139°43'3 5.5
2017-Apr-27 15:30N 35°14' E 139°46'612.5
2017-Apr-27 15:01N 35°19' E 139°43'7 6.6
2017-Apr-27 14:00N 35°26' E 139°44'4 7.7
2017-Apr-27 13:30N 35°29' E 139°46'0 0.0
2017-Apr-27 13:00N 35°29' E 139°46'0 0.0
2017-Apr-27 12:30N 35°29' E 139°46'0 0.0
2017-Apr-27 12:00N 35°29' E 139°46'0 0.1
2017-Apr-27 11:30N 35°29' E 139°46'0 0.0
2017-Apr-27 11:00N 35°29' E 139°46'0 0.0
2017-Apr-27 10:30N 35°29' E 139°46'0 0.1
2017-Apr-27 10:00N 35°29' E 139°46'1 2.3
2017-Apr-27 09:30N 35°30' E 139°47'1 2.5
2017-Apr-27 09:00N 35°30' E 139°46'1 1.6
2017-Apr-27 08:30N 35°30' E 139°47'5 9.2
2017-Apr-27 08:00N 35°26' E 139°47'611.4
2017-Apr-27 07:31N 35°20' E 139°45'7 1.9
2017-Apr-27 03:41N 35°13' E 139°43'210.2
2017-Apr-27 03:28N 35°12' E 139°45'4 8.4
2017-Apr-27 02:59N 35°16' E 139°46'612.1
2017-Apr-27 02:30N 35°21' E 139°42'3 5.8
2017-Apr-27 02:01N 35°23' E 139°40'1 1.9
2017-Apr-27 01:30N 35°24' E 139°39'0 0.3
2017-Apr-27 01:00N 35°24' E 139°39'5 9.8
2017-Apr-27 00:30N 35°19' E 139°41'3 5.0
2017-Apr-27 00:00N 35°17' E 139°41'0 0.0
2017-Apr-26 23:30N 35°17' E 139°41'0 0.0
2017-Apr-26 23:00N 35°17' E 139°41'0 0.0
2017-Apr-26 22:30N 35°17' E 139°41'0 0.0
2017-Apr-26 22:00N 35°17' E 139°41'0 0.0
2017-Apr-26 17:53N 35°17' E 139°41'0 0.0
2017-Apr-26 16:36N 35°17' E 139°41'0 0.0
2017-Apr-26 16:28N 35°17' E 139°41'0 0.0
2017-Apr-26 15:57N 35°17' E 139°41'0 0.0
2017-Apr-26 15:25N 35°17' E 139°41'0 0.0
2017-Apr-26 15:00N 35°17' E 139°41'0 0.0
2017-Apr-26 14:30N 35°17' E 139°41'0 0.0
2017-Apr-26 13:27N 35°17' E 139°41'0 0.0
2017-Apr-26 12:59N 35°17' E 139°41'0 0.0
2017-Apr-26 12:30N 35°17' E 139°41'0 0.0
2017-Apr-26 12:00N 35°17' E 139°41'0 0.0
2017-Apr-26 11:28N 35°17' E 139°41'0 0.0
2017-Apr-26 11:00N 35°17' E 139°41'0 0.0
2017-Apr-26 10:30N 35°17' E 139°41'0 0.0
2017-Apr-26 09:58N 35°17' E 139°41'0 0.0
2017-Apr-26 09:30N 35°17' E 139°41'0 0.0
2017-Apr-26 09:00N 35°17' E 139°41'0 0.0
2017-Apr-26 08:29N 35°17' E 139°41'0 0.0
2017-Apr-26 07:58N 35°17' E 139°41'0 0.0
2017-Apr-26 07:30N 35°17' E 139°41'0 0.0
2017-Apr-26 07:00N 35°17' E 139°41'0 0.0
2017-Apr-26 06:30N 35°17' E 139°41'0 0.0
2017-Apr-26 06:00N 35°17' E 139°41'0 0.0
2017-Apr-26 05:30N 35°17' E 139°41'0 0.1
2017-Apr-26 05:00N 35°17' E 139°41'0 0.1
2017-Apr-26 04:30N 35°17' E 139°41'0 0.0
2017-Apr-26 04:00N 35°17' E 139°41'0 0.0
2017-Apr-26 03:30N 35°17' E 139°41'0 0.0
2017-Apr-26 03:00N 35°17' E 139°41'0 0.0
2017-Apr-26 02:30N 35°17' E 139°41'0 0.3
2017-Apr-26 02:01N 35°17' E 139°41'510.5
2017-Apr-26 01:30N 35°22' E 139°42'3 5.9
2017-Apr-26 01:00N 35°20' E 139°43'611.0
2017-Apr-26 00:29N 35°15' E 139°47'511.1
2017-Apr-26 00:00N 35°09' E 139°46'4 8.5
2017-Apr-25 23:30N 35°13' E 139°44'1 1.6
2017-Apr-25 23:00N 35°13' E 139°43'0 0.0
2017-Apr-25 22:30N 35°13' E 139°43'3 6.1
2017-Apr-25 22:00N 35°12' E 139°46'510.1
2017-Apr-25 21:30N 35°17' E 139°45'713.7
2017-Apr-25 21:00N 35°23' E 139°42'3 5.9
2017-Apr-25 20:30N 35°26' E 139°42'0 0.2
2017-Apr-25 20:00N 35°26' E 139°42'4 7.1
2017-Apr-25 19:30N 35°23' E 139°41'511.0
2017-Apr-25 19:00N 35°17' E 139°41'0 0.9
2017-Apr-25 18:30N 35°17' E 139°41'0 0.0
2017-Apr-25 17:59N 35°17' E 139°41'0 0.0
2017-Apr-25 17:30N 35°17' E 139°41'0 0.0
2017-Apr-25 17:00N 35°17' E 139°41'0 0.0
2017-Apr-25 16:30N 35°17' E 139°41'0 0.0
2017-Apr-25 16:00N 35°17' E 139°41'0 0.0
2017-Apr-25 15:29N 35°17' E 139°41'0 0.0
2017-Apr-25 15:00N 35°17' E 139°41'0 0.0
2017-Apr-25 14:00N 35°17' E 139°41'0 0.0
2017-Apr-25 13:29N 35°17' E 139°41'0 0.0
2017-Apr-25 13:00N 35°17' E 139°41'0 0.0
2017-Apr-25 12:21N 35°17' E 139°41'0 0.0
2017-Apr-25 11:54N 35°17' E 139°41'0 0.0
2017-Apr-25 11:12N 35°17' E 139°41'1 4.3
2017-Apr-25 11:00N 35°17' E 139°41'1 1.4
2017-Apr-25 10:30N 35°17' E 139°41'1 2.6
2017-Apr-25 10:01N 35°18' E 139°42'4 8.8
2017-Apr-25 09:30N 35°14' E 139°46'510.1
2017-Apr-25 09:00N 35°09' E 139°47'3 5.2
2017-Apr-25 08:30N 35°12' E 139°46'3 4.5
2017-Apr-25 07:56N 35°13' E 139°43'0 0.0
2017-Apr-25 07:24N 35°13' E 139°43'0 0.0
2017-Apr-25 06:56N 35°13' E 139°43'0 0.0
2017-Apr-25 06:30N 35°13' E 139°43'0 0.0
2017-Apr-25 06:00N 35°13' E 139°43'0 0.0
2017-Apr-25 05:30N 35°13' E 139°43'0 0.0
2017-Apr-25 05:00N 35°13' E 139°43'0 0.0
2017-Apr-25 04:30N 35°13' E 139°43'0 0.0
2017-Apr-25 04:00N 35°13' E 139°43'0 0.0
2017-Apr-25 03:30N 35°13' E 139°43'0 0.5
2017-Apr-25 03:00N 35°13' E 139°43'3 5.3
2017-Apr-25 02:30N 35°14' E 139°46'611.9
2017-Apr-25 02:00N 35°19' E 139°43'5 9.7
2017-Apr-25 01:31N 35°24' E 139°40'1 2.2
2017-Apr-25 01:00N 35°24' E 139°39'1 1.8
2017-Apr-25 00:31N 35°23' E 139°40'0 0.0
2017-Apr-25 00:00N 35°23' E 139°40'0 0.0
2017-Apr-24 23:31N 35°23' E 139°40'3 5.7
2017-Apr-24 23:00N 35°21' E 139°41'4 7.5
2017-Apr-24 22:30N 35°17' E 139°41'1 1.0
2017-Apr-24 22:00N 35°17' E 139°41'0 0.6
2017-Apr-24 21:30N 35°18' E 139°42'1 1.8
2017-Apr-24 21:00N 35°17' E 139°41'0 0.0
2017-Apr-24 20:30N 35°17' E 139°41'0 0.0
2017-Apr-24 20:00N 35°17' E 139°41'0 0.0
2017-Apr-24 19:29N 35°17' E 139°41'0 0.1
2017-Apr-24 19:00N 35°17' E 139°41'0 0.1
2017-Apr-24 18:31N 35°17' E 139°41'0 0.0
2017-Apr-24 18:00N 35°17' E 139°41'0 0.0
2017-Apr-24 17:30N 35°17' E 139°41'0 0.0
2017-Apr-24 17:00N 35°17' E 139°41'0 0.1
2017-Apr-24 16:30N 35°17' E 139°41'0 0.1
2017-Apr-24 16:00N 35°17' E 139°41'0 0.0
2017-Apr-24 15:30N 35°17' E 139°41'0 0.0
2017-Apr-24 15:00N 35°17' E 139°41'0 0.0
2017-Apr-24 09:28N 35°17' E 139°41'0 0.0
2017-Apr-24 08:37N 35°17' E 139°41'0 0.3
2017-Apr-24 08:28N 35°17' E 139°41'0 0.0
2017-Apr-24 07:27N 35°17' E 139°41'0 0.0
2017-Apr-24 06:57N 35°17' E 139°41'0 0.1
2017-Apr-24 06:29N 35°17' E 139°41'0 0.0
2017-Apr-24 05:59N 35°17' E 139°41'0 0.0
2017-Apr-24 05:30N 35°17' E 139°41'0 0.0
2017-Apr-24 05:00N 35°17' E 139°41'0 0.1
2017-Apr-24 04:31N 35°17' E 139°41'0 0.1
2017-Apr-24 04:00N 35°17' E 139°41'0 0.1
2017-Apr-24 03:30N 35°17' E 139°41'1 1.7
2017-Apr-24 03:00N 35°18' E 139°41'510.4
2017-Apr-24 02:31N 35°22' E 139°43'2 4.1
2017-Apr-24 02:00N 35°23' E 139°46'611.4
2017-Apr-24 01:30N 35°17' E 139°45'611.3
2017-Apr-24 01:00N 35°11' E 139°47'1 1.8
2017-Apr-24 00:30N 35°11' E 139°46'3 5.9
2017-Apr-23 23:59N 35°13' E 139°43'0 0.0
2017-Apr-23 23:30N 35°13' E 139°43'0 0.0
2017-Apr-23 23:00N 35°13' E 139°43'3 5.9
2017-Apr-23 22:30N 35°12' E 139°46'510.3
2017-Apr-23 21:59N 35°17' E 139°45'612.5
2017-Apr-23 21:30N 35°23' E 139°42'4 8.8
2017-Apr-23 21:00N 35°27' E 139°43'2 3.1
2017-Apr-23 20:30N 35°26' E 139°42'510.7
2017-Apr-23 20:00N 35°20' E 139°42'3 6.5
2017-Apr-23 19:30N 35°17' E 139°41'0 0.0
2017-Apr-23 19:00N 35°17' E 139°41'0 0.0
2017-Apr-23 18:30N 35°17' E 139°41'0 0.0
2017-Apr-23 18:01N 35°17' E 139°41'0 0.0
2017-Apr-23 17:30N 35°17' E 139°41'0 0.0
2017-Apr-23 16:57N 35°17' E 139°41'0 0.0
2017-Apr-23 16:29N 35°17' E 139°41'0 0.0
2017-Apr-23 16:00N 35°17' E 139°41'0 0.0
2017-Apr-23 12:14N 35°17' E 139°41'0 0.0
2017-Apr-23 08:31N 35°17' E 139°41'0 8.0
2017-Apr-23 08:30N 35°17' E 139°41'5 9.7
2017-Apr-23 08:00N 35°22' E 139°41'2 3.9
2017-Apr-23 07:30N 35°24' E 139°42'3 6.9
2017-Apr-23 07:00N 35°23' E 139°46'611.4
2017-Apr-23 06:30N 35°17' E 139°46'612.0
2017-Apr-23 06:00N 35°11' E 139°47'0 0.9
2017-Apr-23 05:30N 35°11' E 139°46'3 6.6
2017-Apr-23 04:59N 35°13' E 139°43'0 0.0
2017-Apr-23 04:30N 35°13' E 139°43'0 0.0
2017-Apr-23 04:00N 35°13' E 139°43'3 5.5
2017-Apr-23 03:30N 35°13' E 139°46'612.3
2017-Apr-23 03:00N 35°19' E 139°43'612.7
2017-Apr-23 02:30N 35°25' E 139°43'714.6
2017-Apr-23 02:00N 35°29' E 139°51'3 1.4
2017-Apr-23 00:01N 35°27' E 139°53'0 9.5
2017-Apr-23 00:00N 35°27' E 139°53'510.8
2017-Apr-22 23:30N 35°23' E 139°49'510.8
2017-Apr-22 23:00N 35°20' E 139°44'4 7.3
2017-Apr-22 22:30N 35°17' E 139°41'0 0.0
2017-Apr-22 22:00N 35°17' E 139°41'0 0.0
2017-Apr-22 21:30N 35°17' E 139°41'0 0.0
2017-Apr-22 21:00N 35°17' E 139°41'0 0.0
2017-Apr-22 20:30N 35°17' E 139°41'0 0.0
2017-Apr-22 20:00N 35°17' E 139°41'0 0.0
2017-Apr-22 19:30N 35°17' E 139°41'0 0.0
2017-Apr-22 19:00N 35°17' E 139°41'0 0.0
2017-Apr-22 18:30N 35°17' E 139°41'0 0.0
2017-Apr-22 18:00N 35°17' E 139°41'0 0.0
2017-Apr-22 17:30N 35°17' E 139°41'0 0.1
2017-Apr-22 17:00N 35°17' E 139°41'0 0.1
2017-Apr-22 16:30N 35°17' E 139°41'0 0.0
2017-Apr-22 16:00N 35°17' E 139°41'0 0.0
2017-Apr-22 15:30N 35°17' E 139°41'0 0.0
2017-Apr-22 15:00N 35°17' E 139°41'0 0.0
2017-Apr-22 14:30N 35°17' E 139°41'0 0.0
2017-Apr-22 13:30N 35°17' E 139°41'0 0.0
2017-Apr-22 13:00N 35°17' E 139°41'0 0.1
2017-Apr-22 12:30N 35°17' E 139°41'0 0.1
2017-Apr-22 12:00N 35°17' E 139°41'0 0.0
2017-Apr-22 11:30N 35°17' E 139°41'0 0.0
2017-Apr-22 11:00N 35°17' E 139°41'0 0.0
2017-Apr-22 10:30N 35°17' E 139°41'3 5.5
2017-Apr-22 10:00N 35°17' E 139°44'4 8.4
2017-Apr-22 09:30N 35°13' E 139°46'612.3
2017-Apr-22 09:00N 35°19' E 139°43'713.1
2017-Apr-22 08:31N 35°25' E 139°42'1 2.3
2017-Apr-22 08:00N 35°26' E 139°42'5 9.1
2017-Apr-22 07:30N 35°22' E 139°41'5 9.0
2017-Apr-22 07:00N 35°17' E 139°41'0 0.0
2017-Apr-22 06:28N 35°17' E 139°41'0 0.0
2017-Apr-22 06:00N 35°17' E 139°41'0 0.0
2017-Apr-22 05:30N 35°17' E 139°41'0 0.1
2017-Apr-22 04:58N 35°17' E 139°41'0 0.1
2017-Apr-22 04:29N 35°17' E 139°41'0 0.0
2017-Apr-22 03:58N 35°17' E 139°41'0 0.0
2017-Apr-22 03:15N 35°17' E 139°41'0 0.0
2017-Apr-22 02:37N 35°17' E 139°41'0 0.0
2017-Apr-21 23:57N 35°17' E 139°41'2 5.3
2017-Apr-21 23:30N 35°19' E 139°39'0 0.1
2017-Apr-21 23:00N 35°19' E 139°39'1 1.5
2017-Apr-21 22:29N 35°19' E 139°40'0 0.0
2017-Apr-21 22:00N 35°19' E 139°40'4 8.9
2017-Apr-21 21:30N 35°18' E 139°45'612.4
2017-Apr-21 21:00N 35°12' E 139°47'1 1.0
2017-Apr-21 20:31N 35°11' E 139°46'611.0
2017-Apr-21 20:00N 35°16' E 139°45'3 4.9
2017-Apr-21 19:19N 35°17' E 139°41'0 0.1
2017-Apr-21 19:00N 35°17' E 139°41'0 0.1
2017-Apr-21 18:30N 35°17' E 139°41'0 0.1
2017-Apr-21 18:01N 35°17' E 139°41'0 0.1
2017-Apr-21 17:31N 35°17' E 139°41'0 0.0
2017-Apr-21 17:01N 35°17' E 139°41'0 0.0
2017-Apr-21 16:31N 35°17' E 139°41'0 0.0
2017-Apr-21 16:01N 35°17' E 139°41'0 0.0
2017-Apr-21 15:30N 35°17' E 139°41'0 0.0
2017-Apr-21 15:00N 35°17' E 139°41'0 0.0
2017-Apr-21 14:30N 35°17' E 139°41'0 0.0
2017-Apr-21 13:30N 35°17' E 139°41'0 0.0
2017-Apr-21 13:00N 35°17' E 139°41'0 0.1
2017-Apr-21 12:30N 35°17' E 139°41'0 0.0
2017-Apr-21 11:06N 35°17' E 139°41'0 0.0
2017-Apr-21 10:58N 35°17' E 139°41'0 0.0
2017-Apr-21 09:51N 35°17' E 139°41'0 0.0
2017-Apr-21 09:30N 35°17' E 139°41'0 0.0
2017-Apr-21 09:00N 35°17' E 139°41'0 0.0
2017-Apr-21 08:31N 35°17' E 139°41'0 0.0
2017-Apr-21 08:01N 35°17' E 139°41'4 8.9
2017-Apr-21 07:30N 35°21' E 139°42'510.7
2017-Apr-21 07:00N 35°21' E 139°49'1 1.9
2017-Apr-21 06:30N 35°20' E 139°49'0 0.0
2017-Apr-21 06:00N 35°20' E 139°49'2 4.3
2017-Apr-21 05:30N 35°22' E 139°48'5 9.6
2017-Apr-21 05:01N 35°27' E 139°46'1 2.2
2017-Apr-21 04:30N 35°26' E 139°46'5 9.9
2017-Apr-21 04:00N 35°21' E 139°45'5 9.4
2017-Apr-21 03:30N 35°16' E 139°46'5 9.5
2017-Apr-21 03:00N 35°12' E 139°47'1 1.2
2017-Apr-21 02:30N 35°11' E 139°47'4 5.9
2017-Apr-21 01:51N 35°13' E 139°43'0 0.0
2017-Apr-21 01:30N 35°13' E 139°43'1 1.5
2017-Apr-21 01:00N 35°13' E 139°44'510.4
2017-Apr-21 00:30N 35°18' E 139°42'1 2.8
2017-Apr-20 23:59N 35°20' E 139°41'1 2.9
2017-Apr-20 23:30N 35°19' E 139°40'1 2.6
2017-Apr-20 23:00N 35°20' E 139°41'3 4.6
2017-Apr-20 22:28N 35°17' E 139°41'0 0.0
2017-Apr-20 21:54N 35°17' E 139°41'0 0.0
2017-Apr-20 21:29N 35°17' E 139°41'0 0.0
2017-Apr-20 21:00N 35°17' E 139°41'0 0.0
2017-Apr-20 20:29N 35°17' E 139°41'0 0.0
2017-Apr-20 20:00N 35°17' E 139°41'0 0.0
2017-Apr-20 19:30N 35°17' E 139°41'0 0.0
2017-Apr-20 18:58N 35°17' E 139°41'0 0.0
2017-Apr-20 18:30N 35°17' E 139°41'0 0.0
2017-Apr-20 17:53N 35°17' E 139°41'0 0.0
2017-Apr-20 17:28N 35°17' E 139°41'0 0.0
2017-Apr-20 16:53N 35°17' E 139°41'0 0.0
2017-Apr-20 16:30N 35°17' E 139°41'0 0.0
2017-Apr-20 15:59N 35°17' E 139°41'0 0.0
2017-Apr-20 15:30N 35°17' E 139°41'0 0.0
2017-Apr-20 15:00N 35°17' E 139°41'0 0.0
2017-Apr-20 13:59N 35°17' E 139°41'0 0.0
2017-Apr-20 13:30N 35°17' E 139°41'0 0.0
2017-Apr-20 13:00N 35°17' E 139°41'0 0.0
2017-Apr-20 12:30N 35°17' E 139°41'0 0.0
2017-Apr-20 12:00N 35°17' E 139°41'0 0.0
2017-Apr-20 11:30N 35°17' E 139°41'0 0.0
2017-Apr-20 10:59N 35°17' E 139°41'0 0.0
2017-Apr-20 10:29N 35°17' E 139°41'0 0.0
2017-Apr-20 10:00N 35°17' E 139°41'0 0.0
2017-Apr-20 09:25N 35°17' E 139°41'0 0.0
2017-Apr-20 08:57N 35°17' E 139°41'0 0.0
2017-Apr-20 08:29N 35°17' E 139°41'0 0.0
2017-Apr-20 07:57N 35°17' E 139°41'0 0.0
2017-Apr-20 07:27N 35°17' E 139°41'0 0.0
2017-Apr-20 06:58N 35°17' E 139°41'0 0.0
2017-Apr-20 06:30N 35°17' E 139°41'0 0.0
2017-Apr-20 06:00N 35°17' E 139°41'0 0.0
2017-Apr-20 05:30N 35°17' E 139°41'0 0.0
2017-Apr-20 05:00N 35°17' E 139°41'1 2.0
2017-Apr-20 04:30N 35°18' E 139°41'612.0
2017-Apr-20 04:00N 35°23' E 139°44'611.5
2017-Apr-20 03:30N 35°26' E 139°50'1 2.2
2017-Apr-20 03:00N 35°26' E 139°49'5 9.9
2017-Apr-20 02:30N 35°22' E 139°45'5 9.7
2017-Apr-20 02:00N 35°17' E 139°45'  
Track history (hours):
 
Tides and Currents Weather Stations Pressure Air Temp Water Temp Dewpoint Dewpoint Depression Visibility Wind Speed Wind Dir Waves Ship Positions

Uraga Maru

Last reported at 2017-Apr-30 01:30 UTC. Time now 2017-Apr-30 01:35 UTC.
Position N 35°17' E 139°41'.

Length 40 m; draft 2.8 m.

Type: Tug. MMSI: 431101119.

Date/timePositionNaut miles runAvg speedWind from/ knotsBaromVisibWave heightAir tempDewpointWater temp
2017-Apr-30 01:30N 35°17' E 139°41'0 0.0
2017-Apr-30 01:00N 35°17' E 139°41'0 0.0
2017-Apr-30 00:30N 35°17' E 139°41'0 0.0
2017-Apr-30 00:00N 35°17' E 139°41'0 0.0
2017-Apr-29 23:30N 35°17' E 139°41'3 5.4
2017-Apr-29 23:00N 35°17' E 139°44'4 8.2
2017-Apr-29 22:28N 35°13' E 139°47'612.5
2017-Apr-29 22:00N 35°18' E 139°44'612.0
2017-Apr-29 21:30N 35°24' E 139°43'4 8.7
2017-Apr-29 21:00N 35°28' E 139°45'0 0.4
2017-Apr-29 20:30N 35°28' E 139°45'0 0.4
2017-Apr-29 20:01N 35°28' E 139°45'4 7.0
2017-Apr-29 19:30N 35°25' E 139°43'611.3
2017-Apr-29 19:00N 35°19' E 139°42'6 7.4
2017-Apr-29 18:13N 35°14' E 139°46'311.8
2017-Apr-29 17:57N 35°17' E 139°45'511.9
2017-Apr-29 17:30N 35°22' E 139°42'5 9.1
2017-Apr-29 17:00N 35°26' E 139°42'4 8.3
2017-Apr-29 16:30N 35°22' E 139°42'510.0
2017-Apr-29 15:59N 35°17' E 139°41'0 0.0
2017-Apr-29 12:12N 35°17' E 139°41'0 0.1
2017-Apr-29 11:09N 35°17' E 139°41'211.4
2017-Apr-29 11:00N 35°18' E 139°43'4 6.9
2017-Apr-29 10:23N 35°13' E 139°43'3 5.8
2017-Apr-29 09:56N 35°13' E 139°46'512.1
2017-Apr-29 09:30N 35°18' E 139°44'611.5
2017-Apr-29 09:00N 35°24' E 139°43'5 8.8
2017-Apr-29 08:29N 35°24' E 139°48'2 4.1
2017-Apr-29 07:59N 35°23' E 139°51'4 8.7
2017-Apr-29 07:30N 35°22' E 139°46'612.4
2017-Apr-29 07:01N 35°17' E 139°41'0 0.3
2017-Apr-29 06:30N 35°17' E 139°41'0 0.0
2017-Apr-29 05:59N 35°17' E 139°41'0 0.0
2017-Apr-29 05:28N 35°17' E 139°41'0 0.0
2017-Apr-29 04:56N 35°17' E 139°41'0 0.0
2017-Apr-29 04:30N 35°17' E 139°41'4 8.3
2017-Apr-29 04:00N 35°16' E 139°45'2 4.1
2017-Apr-29 03:31N 35°14' E 139°46'611.8
2017-Apr-29 03:01N 35°19' E 139°43'510.4
2017-Apr-29 02:31N 35°24' E 139°40'1 1.9
2017-Apr-29 02:00N 35°24' E 139°39'0 0.1
2017-Apr-29 01:31N 35°24' E 139°39'510.2
2017-Apr-29 01:00N 35°19' E 139°41'2 5.0
2017-Apr-29 00:30N 35°17' E 139°41'0 0.0
2017-Apr-29 00:01N 35°17' E 139°41'0 0.0
2017-Apr-28 23:30N 35°17' E 139°41'0 0.0
2017-Apr-28 23:00N 35°17' E 139°41'0 0.0
2017-Apr-28 22:30N 35°17' E 139°41'0 0.0
2017-Apr-28 21:37N 35°17' E 139°41'0 0.0
2017-Apr-28 21:27N 35°17' E 139°41'0 0.0
2017-Apr-28 20:58N 35°17' E 139°41'0 0.0
2017-Apr-28 20:29N 35°17' E 139°41'0 0.0
2017-Apr-28 19:58N 35°17' E 139°41'0 0.0
2017-Apr-28 16:21N 35°17' E 139°41'0 0.0
2017-Apr-28 15:57N 35°17' E 139°41'0 0.0
2017-Apr-28 15:29N 35°17' E 139°41'0 0.0
2017-Apr-28 15:00N 35°17' E 139°41'0 0.0
2017-Apr-28 14:30N 35°17' E 139°41'0 0.0
2017-Apr-28 08:24N 35°17' E 139°41'0 0.0
2017-Apr-28 07:44N 35°17' E 139°41'0 0.0
2017-Apr-28 07:05N 35°17' E 139°41'0 0.1
2017-Apr-28 07:00N 35°17' E 139°41'0 0.0
2017-Apr-28 06:28N 35°17' E 139°41'0 0.0
2017-Apr-28 05:43N 35°17' E 139°41'0 0.0
2017-Apr-28 05:31N 35°17' E 139°41'0 0.0
2017-Apr-28 05:01N 35°17' E 139°41'0 0.0
2017-Apr-28 04:31N 35°17' E 139°41'0 0.0
2017-Apr-28 04:00N 35°17' E 139°41'0 0.0
2017-Apr-28 03:31N 35°17' E 139°41'0 0.0
2017-Apr-28 03:00N 35°17' E 139°41'0 0.0
2017-Apr-28 02:31N 35°17' E 139°41'0 0.0
2017-Apr-28 02:00N 35°17' E 139°41'0 0.0
2017-Apr-28 01:30N 35°17' E 139°41'0 0.0
2017-Apr-28 01:01N 35°17' E 139°41'0 0.0
2017-Apr-28 00:30N 35°17' E 139°41'0 0.0
2017-Apr-28 00:01N 35°17' E 139°41'0 0.0
2017-Apr-27 23:31N 35°17' E 139°41'0 0.1
2017-Apr-27 22:57N 35°17' E 139°41'1 2.1
2017-Apr-27 22:30N 35°18' E 139°41'510.6
2017-Apr-27 22:00N 35°23' E 139°44'1 2.5
2017-Apr-27 21:31N 35°22' E 139°45'510.3
2017-Apr-27 21:00N 35°17' E 139°46'4 2.8
2017-Apr-27 19:35N 35°13' E 139°43'0 0.0
2017-Apr-27 16:19N 35°13' E 139°43'0 0.6
2017-Apr-27 15:58N 35°13' E 139°43'3 5.5
2017-Apr-27 15:30N 35°14' E 139°46'612.5
2017-Apr-27 15:01N 35°19' E 139°43'7 6.6
2017-Apr-27 14:00N 35°26' E 139°44'4 7.7
2017-Apr-27 13:30N 35°29' E 139°46'0 0.0
2017-Apr-27 13:00N 35°29' E 139°46'0 0.0
2017-Apr-27 12:30N 35°29' E 139°46'0 0.0
2017-Apr-27 12:00N 35°29' E 139°46'0 0.1
2017-Apr-27 11:30N 35°29' E 139°46'0 0.0
2017-Apr-27 11:00N 35°29' E 139°46'0 0.0
2017-Apr-27 10:30N 35°29' E 139°46'0 0.1
2017-Apr-27 10:00N 35°29' E 139°46'1 2.3
2017-Apr-27 09:30N 35°30' E 139°47'1 2.5
2017-Apr-27 09:00N 35°30' E 139°46'1 1.6
2017-Apr-27 08:30N 35°30' E 139°47'5 9.2
2017-Apr-27 08:00N 35°26' E 139°47'611.4
2017-Apr-27 07:31N 35°20' E 139°45'7 1.9
2017-Apr-27 03:41N 35°13' E 139°43'210.2
2017-Apr-27 03:28N 35°12' E 139°45'4 8.4
2017-Apr-27 02:59N 35°16' E 139°46'612.1
2017-Apr-27 02:30N 35°21' E 139°42'3 5.8
2017-Apr-27 02:01N 35°23' E 139°40'1 1.9
2017-Apr-27 01:30N 35°24' E 139°39'0 0.3
2017-Apr-27 01:00N 35°24' E 139°39'5 9.8
2017-Apr-27 00:30N 35°19' E 139°41'3 5.0
2017-Apr-27 00:00N 35°17' E 139°41'0 0.0
2017-Apr-26 23:30N 35°17' E 139°41'0 0.0
2017-Apr-26 23:00N 35°17' E 139°41'0 0.0
2017-Apr-26 22:30N 35°17' E 139°41'0 0.0
2017-Apr-26 22:00N 35°17' E 139°41'0 0.0
2017-Apr-26 17:53N 35°17' E 139°41'0 0.0
2017-Apr-26 16:36N 35°17' E 139°41'0 0.0
2017-Apr-26 16:28N 35°17' E 139°41'0 0.0
2017-Apr-26 15:57N 35°17' E 139°41'0 0.0
2017-Apr-26 15:25N 35°17' E 139°41'0 0.0
2017-Apr-26 15:00N 35°17' E 139°41'0 0.0
2017-Apr-26 14:30N 35°17' E 139°41'0 0.0
2017-Apr-26 13:27N 35°17' E 139°41'0 0.0
2017-Apr-26 12:59N 35°17' E 139°41'0 0.0
2017-Apr-26 12:30N 35°17' E 139°41'0 0.0
2017-Apr-26 12:00N 35°17' E 139°41'0 0.0
2017-Apr-26 11:28N 35°17' E 139°41'0 0.0
2017-Apr-26 11:00N 35°17' E 139°41'0 0.0
2017-Apr-26 10:30N 35°17' E 139°41'0 0.0
2017-Apr-26 09:58N 35°17' E 139°41'0 0.0
2017-Apr-26 09:30N 35°17' E 139°41'0 0.0
2017-Apr-26 09:00N 35°17' E 139°41'0 0.0
2017-Apr-26 08:29N 35°17' E 139°41'0 0.0
2017-Apr-26 07:58N 35°17' E 139°41'0 0.0
2017-Apr-26 07:30N 35°17' E 139°41'0 0.0
2017-Apr-26 07:00N 35°17' E 139°41'0 0.0
2017-Apr-26 06:30N 35°17' E 139°41'0 0.0
2017-Apr-26 06:00N 35°17' E 139°41'0 0.0
2017-Apr-26 05:30N 35°17' E 139°41'0 0.1
2017-Apr-26 05:00N 35°17' E 139°41'0 0.1
2017-Apr-26 04:30N 35°17' E 139°41'0 0.0
2017-Apr-26 04:00N 35°17' E 139°41'0 0.0
2017-Apr-26 03:30N 35°17' E 139°41'0 0.0
2017-Apr-26 03:00N 35°17' E 139°41'0 0.0
2017-Apr-26 02:30N 35°17' E 139°41'0 0.3
2017-Apr-26 02:01N 35°17' E 139°41'510.5
2017-Apr-26 01:30N 35°22' E 139°42'3 5.9
2017-Apr-26 01:00N 35°20' E 139°43'611.0
2017-Apr-26 00:29N 35°15' E 139°47'511.1
2017-Apr-26 00:00N 35°09' E 139°46'4 8.5
2017-Apr-25 23:30N 35°13' E 139°44'1 1.6
2017-Apr-25 23:00N 35°13' E 139°43'0 0.0
2017-Apr-25 22:30N 35°13' E 139°43'3 6.1
2017-Apr-25 22:00N 35°12' E 139°46'510.1
2017-Apr-25 21:30N 35°17' E 139°45'713.7
2017-Apr-25 21:00N 35°23' E 139°42'3 5.9
2017-Apr-25 20:30N 35°26' E 139°42'0 0.2
2017-Apr-25 20:00N 35°26' E 139°42'4 7.1
2017-Apr-25 19:30N 35°23' E 139°41'511.0
2017-Apr-25 19:00N 35°17' E 139°41'0 0.9
2017-Apr-25 18:30N 35°17' E 139°41'0 0.0
2017-Apr-25 17:59N 35°17' E 139°41'0 0.0
2017-Apr-25 17:30N 35°17' E 139°41'0 0.0
2017-Apr-25 17:00N 35°17' E 139°41'0 0.0
2017-Apr-25 16:30N 35°17' E 139°41'0 0.0
2017-Apr-25 16:00N 35°17' E 139°41'0 0.0
2017-Apr-25 15:29N 35°17' E 139°41'0 0.0
2017-Apr-25 15:00N 35°17' E 139°41'0 0.0
2017-Apr-25 14:00N 35°17' E 139°41'0 0.0
2017-Apr-25 13:29N 35°17' E 139°41'0 0.0
2017-Apr-25 13:00N 35°17' E 139°41'0 0.0
2017-Apr-25 12:21N 35°17' E 139°41'0 0.0
2017-Apr-25 11:54N 35°17' E 139°41'0 0.0
2017-Apr-25 11:12N 35°17' E 139°41'1 4.3
2017-Apr-25 11:00N 35°17' E 139°41'1 1.4
2017-Apr-25 10:30N 35°17' E 139°41'1 2.6
2017-Apr-25 10:01N 35°18' E 139°42'4 8.8
2017-Apr-25 09:30N 35°14' E 139°46'510.1
2017-Apr-25 09:00N 35°09' E 139°47'3 5.2
2017-Apr-25 08:30N 35°12' E 139°46'3 4.5
2017-Apr-25 07:56N 35°13' E 139°43'0 0.0
2017-Apr-25 07:24N 35°13' E 139°43'0 0.0
2017-Apr-25 06:56N 35°13' E 139°43'0 0.0
2017-Apr-25 06:30N 35°13' E 139°43'0 0.0
2017-Apr-25 06:00N 35°13' E 139°43'0 0.0
2017-Apr-25 05:30N 35°13' E 139°43'0 0.0
2017-Apr-25 05:00N 35°13' E 139°43'0 0.0
2017-Apr-25 04:30N 35°13' E 139°43'0 0.0
2017-Apr-25 04:00N 35°13' E 139°43'0 0.0
2017-Apr-25 03:30N 35°13' E 139°43'0 0.5
2017-Apr-25 03:00N 35°13' E 139°43'3 5.3
2017-Apr-25 02:30N 35°14' E 139°46'611.9
2017-Apr-25 02:00N 35°19' E 139°43'5 9.7
2017-Apr-25 01:31N 35°24' E 139°40'1 2.2
2017-Apr-25 01:00N 35°24' E 139°39'1 1.8
2017-Apr-25 00:31N 35°23' E 139°40'0 0.0
2017-Apr-25 00:00N 35°23' E 139°40'0 0.0
2017-Apr-24 23:31N 35°23' E 139°40'3 5.7
2017-Apr-24 23:00N 35°21' E 139°41'4 7.5
2017-Apr-24 22:30N 35°17' E 139°41'1 1.0
2017-Apr-24 22:00N 35°17' E 139°41'0 0.6
2017-Apr-24 21:30N 35°18' E 139°42'1 1.8
2017-Apr-24 21:00N 35°17' E 139°41'0 0.0
2017-Apr-24 20:30N 35°17' E 139°41'0 0.0
2017-Apr-24 20:00N 35°17' E 139°41'0 0.0
2017-Apr-24 19:29N 35°17' E 139°41'0 0.1
2017-Apr-24 19:00N 35°17' E 139°41'0 0.1
2017-Apr-24 18:31N 35°17' E 139°41'0 0.0
2017-Apr-24 18:00N 35°17' E 139°41'0 0.0
2017-Apr-24 17:30N 35°17' E 139°41'0 0.0
2017-Apr-24 17:00N 35°17' E 139°41'0 0.1
2017-Apr-24 16:30N 35°17' E 139°41'0 0.1
2017-Apr-24 16:00N 35°17' E 139°41'0 0.0
2017-Apr-24 15:30N 35°17' E 139°41'0 0.0
2017-Apr-24 15:00N 35°17' E 139°41'0 0.0
2017-Apr-24 09:28N 35°17' E 139°41'0 0.0
2017-Apr-24 08:37N 35°17' E 139°41'0 0.3
2017-Apr-24 08:28N 35°17' E 139°41'0 0.0
2017-Apr-24 07:27N 35°17' E 139°41'0 0.0
2017-Apr-24 06:57N 35°17' E 139°41'0 0.1
2017-Apr-24 06:29N 35°17' E 139°41'0 0.0
2017-Apr-24 05:59N 35°17' E 139°41'0 0.0
2017-Apr-24 05:30N 35°17' E 139°41'0 0.0
2017-Apr-24 05:00N 35°17' E 139°41'0 0.1
2017-Apr-24 04:31N 35°17' E 139°41'0 0.1
2017-Apr-24 04:00N 35°17' E 139°41'0 0.1
2017-Apr-24 03:30N 35°17' E 139°41'1 1.7
2017-Apr-24 03:00N 35°18' E 139°41'510.4
2017-Apr-24 02:31N 35°22' E 139°43'2 4.1
2017-Apr-24 02:00N 35°23' E 139°46'611.4
2017-Apr-24 01:30N 35°17' E 139°45'611.3
2017-Apr-24 01:00N 35°11' E 139°47'1 1.8
2017-Apr-24 00:30N 35°11' E 139°46'3 5.9
2017-Apr-23 23:59N 35°13' E 139°43'0 0.0
2017-Apr-23 23:30N 35°13' E 139°43'0 0.0
2017-Apr-23 23:00N 35°13' E 139°43'3 5.9
2017-Apr-23 22:30N 35°12' E 139°46'510.3
2017-Apr-23 21:59N 35°17' E 139°45'612.5
2017-Apr-23 21:30N 35°23' E 139°42'4 8.8
2017-Apr-23 21:00N 35°27' E 139°43'2 3.1
2017-Apr-23 20:30N 35°26' E 139°42'510.7
2017-Apr-23 20:00N 35°20' E 139°42'3 6.5
2017-Apr-23 19:30N 35°17' E 139°41'0 0.0
2017-Apr-23 19:00N 35°17' E 139°41'0 0.0
2017-Apr-23 18:30N 35°17' E 139°41'0 0.0
2017-Apr-23 18:01N 35°17' E 139°41'0 0.0
2017-Apr-23 17:30N 35°17' E 139°41'0 0.0
2017-Apr-23 16:57N 35°17' E 139°41'0 0.0
2017-Apr-23 16:29N 35°17' E 139°41'0 0.0
2017-Apr-23 16:00N 35°17' E 139°41'0 0.0
2017-Apr-23 12:14N 35°17' E 139°41'0 0.0
2017-Apr-23 08:31N 35°17' E 139°41'0 8.0
2017-Apr-23 08:30N 35°17' E 139°41'5 9.7
2017-Apr-23 08:00N 35°22' E 139°41'2 3.9
2017-Apr-23 07:30N 35°24' E 139°42'3 6.9
2017-Apr-23 07:00N 35°23' E 139°46'611.4
2017-Apr-23 06:30N 35°17' E 139°46'612.0
2017-Apr-23 06:00N 35°11' E 139°47'0 0.9
2017-Apr-23 05:30N 35°11' E 139°46'3 6.6
2017-Apr-23 04:59N 35°13' E 139°43'0 0.0
2017-Apr-23 04:30N 35°13' E 139°43'0 0.0
2017-Apr-23 04:00N 35°13' E 139°43'3 5.5
2017-Apr-23 03:30N 35°13' E 139°46'612.3
2017-Apr-23 03:00N 35°19' E 139°43'612.7
2017-Apr-23 02:30N 35°25' E 139°43'714.6
2017-Apr-23 02:00N 35°29' E 139°51'3 1.4
2017-Apr-23 00:01N 35°27' E 139°53'0 9.5
2017-Apr-23 00:00N 35°27' E 139°53'510.8
2017-Apr-22 23:30N 35°23' E 139°49'510.8
2017-Apr-22 23:00N 35°20' E 139°44'4 7.3
2017-Apr-22 22:30N 35°17' E 139°41'0 0.0
2017-Apr-22 22:00N 35°17' E 139°41'0 0.0
2017-Apr-22 21:30N 35°17' E 139°41'0 0.0
2017-Apr-22 21:00N 35°17' E 139°41'0 0.0
2017-Apr-22 20:30N 35°17' E 139°41'0 0.0
2017-Apr-22 20:00N 35°17' E 139°41'0 0.0
2017-Apr-22 19:30N 35°17' E 139°41'0 0.0
2017-Apr-22 19:00N 35°17' E 139°41'0 0.0
2017-Apr-22 18:30N 35°17' E 139°41'0 0.0
2017-Apr-22 18:00N 35°17' E 139°41'0 0.0
2017-Apr-22 17:30N 35°17' E 139°41'0 0.1
2017-Apr-22 17:00N 35°17' E 139°41'0 0.1
2017-Apr-22 16:30N 35°17' E 139°41'0 0.0
2017-Apr-22 16:00N 35°17' E 139°41'0 0.0
2017-Apr-22 15:30N 35°17' E 139°41'0 0.0
2017-Apr-22 15:00N 35°17' E 139°41'0 0.0
2017-Apr-22 14:30N 35°17' E 139°41'0 0.0
2017-Apr-22 13:30N 35°17' E 139°41'0 0.0
2017-Apr-22 13:00N 35°17' E 139°41'0 0.1
2017-Apr-22 12:30N 35°17' E 139°41'0 0.1
2017-Apr-22 12:00N 35°17' E 139°41'0 0.0
2017-Apr-22 11:30N 35°17' E 139°41'0 0.0
2017-Apr-22 11:00N 35°17' E 139°41'0 0.0
2017-Apr-22 10:30N 35°17' E 139°41'3 5.5
2017-Apr-22 10:00N 35°17' E 139°44'4 8.4
2017-Apr-22 09:30N 35°13' E 139°46'612.3
2017-Apr-22 09:00N 35°19' E 139°43'713.1
2017-Apr-22 08:31N 35°25' E 139°42'1 2.3
2017-Apr-22 08:00N 35°26' E 139°42'5 9.1
2017-Apr-22 07:30N 35°22' E 139°41'5 9.0
2017-Apr-22 07:00N 35°17' E 139°41'0 0.0
2017-Apr-22 06:28N 35°17' E 139°41'0 0.0
2017-Apr-22 06:00N 35°17' E 139°41'0 0.0
2017-Apr-22 05:30N 35°17' E 139°41'0 0.1
2017-Apr-22 04:58N 35°17' E 139°41'0 0.1
2017-Apr-22 04:29N 35°17' E 139°41'0 0.0
2017-Apr-22 03:58N 35°17' E 139°41'0 0.0
2017-Apr-22 03:15N 35°17' E 139°41'0 0.0
2017-Apr-22 02:37N 35°17' E 139°41'0 0.0
2017-Apr-21 23:57N 35°17' E 139°41'2 5.3
2017-Apr-21 23:30N 35°19' E 139°39'0 0.1
2017-Apr-21 23:00N 35°19' E 139°39'1 1.5
2017-Apr-21 22:29N 35°19' E 139°40'0 0.0
2017-Apr-21 22:00N 35°19' E 139°40'4 8.9
2017-Apr-21 21:30N 35°18' E 139°45'612.4
2017-Apr-21 21:00N 35°12' E 139°47'1 1.0
2017-Apr-21 20:31N 35°11' E 139°46'611.0
2017-Apr-21 20:00N 35°16' E 139°45'3 4.9
2017-Apr-21 19:19N 35°17' E 139°41'0 0.1
2017-Apr-21 19:00N 35°17' E 139°41'0 0.1
2017-Apr-21 18:30N 35°17' E 139°41'0 0.1
2017-Apr-21 18:01N 35°17' E 139°41'0 0.1
2017-Apr-21 17:31N 35°17' E 139°41'0 0.0
2017-Apr-21 17:01N 35°17' E 139°41'0 0.0
2017-Apr-21 16:31N 35°17' E 139°41'0 0.0
2017-Apr-21 16:01N 35°17' E 139°41'0 0.0
2017-Apr-21 15:30N 35°17' E 139°41'0 0.0
2017-Apr-21 15:00N 35°17' E 139°41'0 0.0
2017-Apr-21 14:30N 35°17' E 139°41'0 0.0
2017-Apr-21 13:30N 35°17' E 139°41'0 0.0
2017-Apr-21 13:00N 35°17' E 139°41'0 0.1
2017-Apr-21 12:30N 35°17' E 139°41'0 0.0
2017-Apr-21 11:06N 35°17' E 139°41'0 0.0
2017-Apr-21 10:58N 35°17' E 139°41'0 0.0
2017-Apr-21 09:51N 35°17' E 139°41'0 0.0
2017-Apr-21 09:30N 35°17' E 139°41'0 0.0
2017-Apr-21 09:00N 35°17' E 139°41'0 0.0
2017-Apr-21 08:31N 35°17' E 139°41'0 0.0
2017-Apr-21 08:01N 35°17' E 139°41'4 8.9
2017-Apr-21 07:30N 35°21' E 139°42'510.7
2017-Apr-21 07:00N 35°21' E 139°49'1 1.9
2017-Apr-21 06:30N 35°20' E 139°49'0 0.0
2017-Apr-21 06:00N 35°20' E 139°49'2 4.3
2017-Apr-21 05:30N 35°22' E 139°48'5 9.6
2017-Apr-21 05:01N 35°27' E 139°46'1 2.2
2017-Apr-21 04:30N 35°26' E 139°46'5 9.9
2017-Apr-21 04:00N 35°21' E 139°45'5 9.4
2017-Apr-21 03:30N 35°16' E 139°46'5 9.5
2017-Apr-21 03:00N 35°12' E 139°47'1 1.2
2017-Apr-21 02:30N 35°11' E 139°47'4 5.9
2017-Apr-21 01:51N 35°13' E 139°43'0 0.0
2017-Apr-21 01:30N 35°13' E 139°43'1 1.5
2017-Apr-21 01:00N 35°13' E 139°44'510.4
2017-Apr-21 00:30N 35°18' E 139°42'1 2.8
2017-Apr-20 23:59N 35°20' E 139°41'1 2.9
2017-Apr-20 23:30N 35°19' E 139°40'1 2.6
2017-Apr-20 23:00N 35°20' E 139°41'3 4.6
2017-Apr-20 22:28N 35°17' E 139°41'0 0.0
2017-Apr-20 21:54N 35°17' E 139°41'0 0.0
2017-Apr-20 21:29N 35°17' E 139°41'0 0.0
2017-Apr-20 21:00N 35°17' E 139°41'0 0.0
2017-Apr-20 20:29N 35°17' E 139°41'0 0.0
2017-Apr-20 20:00N 35°17' E 139°41'0 0.0
2017-Apr-20 19:30N 35°17' E 139°41'0 0.0
2017-Apr-20 18:58N 35°17' E 139°41'0 0.0
2017-Apr-20 18:30N 35°17' E 139°41'0 0.0
2017-Apr-20 17:53N 35°17' E 139°41'0 0.0
2017-Apr-20 17:28N 35°17' E 139°41'0 0.0
2017-Apr-20 16:53N 35°17' E 139°41'0 0.0
2017-Apr-20 16:30N 35°17' E 139°41'0 0.0
2017-Apr-20 15:59N 35°17' E 139°41'0 0.0
2017-Apr-20 15:30N 35°17' E 139°41'0 0.0
2017-Apr-20 15:00N 35°17' E 139°41'0 0.0
2017-Apr-20 13:59N 35°17' E 139°41'0 0.0
2017-Apr-20 13:30N 35°17' E 139°41'0 0.0
2017-Apr-20 13:00N 35°17' E 139°41'0 0.0
2017-Apr-20 12:30N 35°17' E 139°41'0 0.0
2017-Apr-20 12:00N 35°17' E 139°41'0 0.0
2017-Apr-20 11:30N 35°17' E 139°41'0 0.0
2017-Apr-20 10:59N 35°17' E 139°41'0 0.0
2017-Apr-20 10:29N 35°17' E 139°41'0 0.0
2017-Apr-20 10:00N 35°17' E 139°41'0 0.0
2017-Apr-20 09:25N 35°17' E 139°41'0 0.0
2017-Apr-20 08:57N 35°17' E 139°41'0 0.0
2017-Apr-20 08:29N 35°17' E 139°41'0 0.0
2017-Apr-20 07:57N 35°17' E 139°41'0 0.0
2017-Apr-20 07:27N 35°17' E 139°41'0 0.0
2017-Apr-20 06:58N 35°17' E 139°41'0 0.0
2017-Apr-20 06:30N 35°17' E 139°41'0 0.0
2017-Apr-20 06:00N 35°17' E 139°41'0 0.0
2017-Apr-20 05:30N 35°17' E 139°41'0 0.0
2017-Apr-20 05:00N 35°17' E 139°41'1 2.0
2017-Apr-20 04:30N 35°18' E 139°41'612.0
2017-Apr-20 04:00N 35°23' E 139°44'611.5
2017-Apr-20 03:30N 35°26' E 139°50'1 2.2
2017-Apr-20 03:00N 35°26' E 139°49'5 9.9
2017-Apr-20 02:30N 35°22' E 139°45'5 9.7
2017-Apr-20 02:00N 35°17' E 139°45'  

Dump ship's entire track history